sensor_id;sensor_type;location;lat;lon;timestamp;temperature;humidity
5226;DHT22;2632;51.666;7.146;2023-05-09T00:01:18;15.70;99.90
5226;DHT22;2632;51.666;7.146;2023-05-09T00:03:45;15.70;99.90
5226;DHT22;2632;51.666;7.146;2023-05-09T00:06:12;15.60;99.90
5226;DHT22;2632;51.666;7.146;2023-05-09T00:08:40;15.60;99.90
5226;DHT22;2632;51.666;7.146;2023-05-09T00:11:07;15.60;99.90
5226;DHT22;2632;51.666;7.146;2023-05-09T00:13:34;15.60;99.90
5226;DHT22;2632;51.666;7.146;2023-05-09T00:16:01;15.50;99.90
5226;DHT22;2632;51.666;7.146;2023-05-09T00:18:28;15.50;99.90
5226;DHT22;2632;51.666;7.146;2023-05-09T00:20:56;15.50;99.90
5226;DHT22;2632;51.666;7.146;2023-05-09T00:23:23;15.50;99.90
5226;DHT22;2632;51.666;7.146;2023-05-09T00:25:49;15.50;99.90
5226;DHT22;2632;51.666;7.146;2023-05-09T00:28:16;15.40;99.90
5226;DHT22;2632;51.666;7.146;2023-05-09T00:30:43;15.50;99.90
5226;DHT22;2632;51.666;7.146;2023-05-09T00:33:09;15.40;99.90
5226;DHT22;2632;51.666;7.146;2023-05-09T00:35:36;15.40;99.90
5226;DHT22;2632;51.666;7.146;2023-05-09T00:38:03;15.40;99.90
5226;DHT22;2632;51.666;7.146;2023-05-09T00:40:29;15.50;99.90
5226;DHT22;2632;51.666;7.146;2023-05-09T00:42:58;15.40;99.90
5226;DHT22;2632;51.666;7.146;2023-05-09T00:45:25;15.40;99.90
5226;DHT22;2632;51.666;7.146;2023-05-09T00:47:51;15.40;99.90
5226;DHT22;2632;51.666;7.146;2023-05-09T00:50:18;15.40;99.90
5226;DHT22;2632;51.666;7.146;2023-05-09T00:52:45;15.40;99.90
5226;DHT22;2632;51.666;7.146;2023-05-09T00:55:12;15.40;99.90
5226;DHT22;2632;51.666;7.146;2023-05-09T00:57:39;15.30;99.90
5226;DHT22;2632;51.666;7.146;2023-05-09T01:00:06;15.30;99.90
5226;DHT22;2632;51.666;7.146;2023-05-09T01:02:43;15.40;99.90
5226;DHT22;2632;51.666;7.146;2023-05-09T02:11:25;14.90;99.90
5226;DHT22;2632;51.666;7.146;2023-05-09T02:13:51;14.90;99.90
5226;DHT22;2632;51.666;7.146;2023-05-09T02:16:18;14.90;99.90
5226;DHT22;2632;51.666;7.146;2023-05-09T02:18:46;14.90;99.90
5226;DHT22;2632;51.666;7.146;2023-05-09T02:21:13;14.90;99.90
5226;DHT22;2632;51.666;7.146;2023-05-09T02:23:39;14.90;99.90
5226;DHT22;2632;51.666;7.146;2023-05-09T02:26:07;14.90;99.90
5226;DHT22;2632;51.666;7.146;2023-05-09T02:28:34;15.00;99.90
5226;DHT22;2632;51.666;7.146;2023-05-09T02:31:04;14.90;99.90
5226;DHT22;2632;51.666;7.146;2023-05-09T02:33:33;14.80;99.90
5226;DHT22;2632;51.666;7.146;2023-05-09T02:36:01;14.80;99.90
5226;DHT22;2632;51.666;7.146;2023-05-09T02:38:28;14.90;99.90
5226;DHT22;2632;51.666;7.146;2023-05-09T02:40:55;14.90;99.90
5226;DHT22;2632;51.666;7.146;2023-05-09T02:43:21;14.80;99.90
5226;DHT22;2632;51.666;7.146;2023-05-09T02:45:48;14.70;99.90
5226;DHT22;2632;51.666;7.146;2023-05-09T02:48:15;14.80;99.90
5226;DHT22;2632;51.666;7.146;2023-05-09T02:50:41;14.70;99.90
5226;DHT22;2632;51.666;7.146;2023-05-09T02:53:08;14.70;99.90
5226;DHT22;2632;51.666;7.146;2023-05-09T02:55:35;14.70;99.90
5226;DHT22;2632;51.666;7.146;2023-05-09T02:58:02;14.70;99.90
5226;DHT22;2632;51.666;7.146;2023-05-09T03:00:39;14.70;99.90
5226;DHT22;2632;51.666;7.146;2023-05-09T03:03:06;14.70;99.90
5226;DHT22;2632;51.666;7.146;2023-05-09T03:05:33;14.70;99.90
5226;DHT22;2632;51.666;7.146;2023-05-09T03:08:00;14.70;99.90
5226;DHT22;2632;51.666;7.146;2023-05-09T03:10:26;14.70;99.90
5226;DHT22;2632;51.666;7.146;2023-05-09T03:12:53;14.70;99.90
5226;DHT22;2632;51.666;7.146;2023-05-09T03:15:20;14.60;99.90
5226;DHT22;2632;51.666;7.146;2023-05-09T03:17:47;14.60;99.90
5226;DHT22;2632;51.666;7.146;2023-05-09T03:20:14;14.60;99.90
5226;DHT22;2632;51.666;7.146;2023-05-09T03:22:41;14.70;99.90
5226;DHT22;2632;51.666;7.146;2023-05-09T03:25:07;14.70;99.90
5226;DHT22;2632;51.666;7.146;2023-05-09T03:27:34;14.70;99.90
5226;DHT22;2632;51.666;7.146;2023-05-09T03:30:01;14.70;99.90
5226;DHT22;2632;51.666;7.146;2023-05-09T03:32:28;14.70;99.90
5226;DHT22;2632;51.666;7.146;2023-05-09T03:34:54;14.70;99.90
5226;DHT22;2632;51.666;7.146;2023-05-09T03:37:22;14.70;99.90
5226;DHT22;2632;51.666;7.146;2023-05-09T03:39:51;14.70;99.90
5226;DHT22;2632;51.666;7.146;2023-05-09T03:42:18;14.70;99.90
5226;DHT22;2632;51.666;7.146;2023-05-09T03:44:44;14.80;99.90
5226;DHT22;2632;51.666;7.146;2023-05-09T03:47:11;14.80;99.90
5226;DHT22;2632;51.666;7.146;2023-05-09T03:49:38;14.80;99.90
5226;DHT22;2632;51.666;7.146;2023-05-09T03:52:05;14.80;99.90
5226;DHT22;2632;51.666;7.146;2023-05-09T03:54:31;14.90;99.90
5226;DHT22;2632;51.666;7.146;2023-05-09T03:56:58;14.90;99.90
5226;DHT22;2632;51.666;7.146;2023-05-09T03:59:24;14.90;99.90
5226;DHT22;2632;51.666;7.146;2023-05-09T04:01:51;15.00;99.90
5226;DHT22;2632;51.666;7.146;2023-05-09T04:04:18;15.00;99.90
5226;DHT22;2632;51.666;7.146;2023-05-09T04:06:44;15.00;99.90
5226;DHT22;2632;51.666;7.146;2023-05-09T04:09:11;15.10;99.90
5226;DHT22;2632;51.666;7.146;2023-05-09T04:11:38;15.20;99.90
5226;DHT22;2632;51.666;7.146;2023-05-09T04:14:05;15.30;99.90
5226;DHT22;2632;51.666;7.146;2023-05-09T04:16:32;15.30;99.90
5226;DHT22;2632;51.666;7.146;2023-05-09T04:18:59;15.40;99.90
5226;DHT22;2632;51.666;7.146;2023-05-09T04:21:26;15.40;99.90
5226;DHT22;2632;51.666;7.146;2023-05-09T04:23:52;15.50;99.90
5226;DHT22;2632;51.666;7.146;2023-05-09T04:26:19;15.50;99.90
5226;DHT22;2632;51.666;7.146;2023-05-09T04:28:48;15.50;99.90
5226;DHT22;2632;51.666;7.146;2023-05-09T04:31:14;15.60;99.90
5226;DHT22;2632;51.666;7.146;2023-05-09T04:33:41;15.60;99.90
5226;DHT22;2632;51.666;7.146;2023-05-09T04:36:08;15.70;99.90
5226;DHT22;2632;51.666;7.146;2023-05-09T04:38:34;15.70;99.90
5226;DHT22;2632;51.666;7.146;2023-05-09T04:41:01;15.70;99.90
5226;DHT22;2632;51.666;7.146;2023-05-09T04:43:27;15.70;99.90
5226;DHT22;2632;51.666;7.146;2023-05-09T04:45:55;15.70;99.90
5226;DHT22;2632;51.666;7.146;2023-05-09T04:48:21;15.70;99.90
5226;DHT22;2632;51.666;7.146;2023-05-09T04:50:48;15.80;99.90
5226;DHT22;2632;51.666;7.146;2023-05-09T04:53:15;15.80;99.90
5226;DHT22;2632;51.666;7.146;2023-05-09T04:55:42;15.80;99.90
5226;DHT22;2632;51.666;7.146;2023-05-09T04:58:09;15.80;99.90
5226;DHT22;2632;51.666;7.146;2023-05-09T05:00:35;15.80;99.90
5226;DHT22;2632;51.666;7.146;2023-05-09T05:03:02;15.80;99.90
5226;DHT22;2632;51.666;7.146;2023-05-09T05:05:29;15.80;99.90
5226;DHT22;2632;51.666;7.146;2023-05-09T05:07:56;15.90;99.90
5226;DHT22;2632;51.666;7.146;2023-05-09T05:10:22;15.90;99.90
5226;DHT22;2632;51.666;7.146;2023-05-09T05:12:49;15.90;99.90
5226;DHT22;2632;51.666;7.146;2023-05-09T05:15:16;15.90;99.90
5226;DHT22;2632;51.666;7.146;2023-05-09T05:17:44;15.90;99.90
5226;DHT22;2632;51.666;7.146;2023-05-09T05:20:11;15.90;99.90
5226;DHT22;2632;51.666;7.146;2023-05-09T05:22:38;16.00;99.90
5226;DHT22;2632;51.666;7.146;2023-05-09T05:25:05;16.00;99.90
5226;DHT22;2632;51.666;7.146;2023-05-09T05:27:32;16.00;99.90
5226;DHT22;2632;51.666;7.146;2023-05-09T05:29:58;16.00;99.90
5226;DHT22;2632;51.666;7.146;2023-05-09T05:32:25;16.00;99.90
5226;DHT22;2632;51.666;7.146;2023-05-09T05:34:52;16.10;99.90
5226;DHT22;2632;51.666;7.146;2023-05-09T05:37:18;16.10;99.90
5226;DHT22;2632;51.666;7.146;2023-05-09T05:39:45;16.10;99.90
5226;DHT22;2632;51.666;7.146;2023-05-09T05:42:11;16.10;99.90
5226;DHT22;2632;51.666;7.146;2023-05-09T05:44:38;16.20;99.90
5226;DHT22;2632;51.666;7.146;2023-05-09T05:47:04;16.20;99.90
5226;DHT22;2632;51.666;7.146;2023-05-09T05:49:31;16.20;99.90
5226;DHT22;2632;51.666;7.146;2023-05-09T05:51:58;16.20;99.90
5226;DHT22;2632;51.666;7.146;2023-05-09T05:54:24;16.10;99.90
5226;DHT22;2632;51.666;7.146;2023-05-09T05:56:51;16.20;99.90
5226;DHT22;2632;51.666;7.146;2023-05-09T05:59:18;16.10;99.90
5226;DHT22;2632;51.666;7.146;2023-05-09T06:01:44;16.10;99.90
5226;DHT22;2632;51.666;7.146;2023-05-09T06:04:11;16.20;99.90
5226;DHT22;2632;51.666;7.146;2023-05-09T06:06:37;16.20;99.90
5226;DHT22;2632;51.666;7.146;2023-05-09T06:09:04;16.20;99.90
5226;DHT22;2632;51.666;7.146;2023-05-09T06:11:31;16.20;99.90
5226;DHT22;2632;51.666;7.146;2023-05-09T06:13:57;16.20;99.90
5226;DHT22;2632;51.666;7.146;2023-05-09T06:16:24;16.20;99.90
5226;DHT22;2632;51.666;7.146;2023-05-09T06:18:50;16.30;99.90
5226;DHT22;2632;51.666;7.146;2023-05-09T06:21:21;16.30;99.90
5226;DHT22;2632;51.666;7.146;2023-05-09T06:23:48;16.40;99.90
5226;DHT22;2632;51.666;7.146;2023-05-09T06:26:33;16.50;99.90
5226;DHT22;2632;51.666;7.146;2023-05-09T06:29:00;16.40;99.90
5226;DHT22;2632;51.666;7.146;2023-05-09T06:31:27;16.60;99.90
5226;DHT22;2632;51.666;7.146;2023-05-09T06:33:55;16.80;99.90
5226;DHT22;2632;51.666;7.146;2023-05-09T06:36:21;16.90;99.90
5226;DHT22;2632;51.666;7.146;2023-05-09T06:38:48;17.10;99.90
5226;DHT22;2632;51.666;7.146;2023-05-09T06:41:14;17.40;99.90
5226;DHT22;2632;51.666;7.146;2023-05-09T06:43:41;17.60;99.90
5226;DHT22;2632;51.666;7.146;2023-05-09T06:46:07;17.70;99.90
5226;DHT22;2632;51.666;7.146;2023-05-09T06:48:34;17.60;99.90
5226;DHT22;2632;51.666;7.146;2023-05-09T06:51:01;17.50;99.90
5226;DHT22;2632;51.666;7.146;2023-05-09T06:53:28;17.30;99.90
5226;DHT22;2632;51.666;7.146;2023-05-09T06:55:54;17.20;99.90
5226;DHT22;2632;51.666;7.146;2023-05-09T06:58:22;17.30;99.90
5226;DHT22;2632;51.666;7.146;2023-05-09T07:00:48;17.40;99.90
5226;DHT22;2632;51.666;7.146;2023-05-09T07:03:15;17.20;99.90
5226;DHT22;2632;51.666;7.146;2023-05-09T07:05:41;17.10;99.90
5226;DHT22;2632;51.666;7.146;2023-05-09T07:08:08;17.20;99.90
5226;DHT22;2632;51.666;7.146;2023-05-09T07:10:35;17.30;99.90
5226;DHT22;2632;51.666;7.146;2023-05-09T07:13:02;17.40;99.90
5226;DHT22;2632;51.666;7.146;2023-05-09T07:15:28;17.60;99.90
5226;DHT22;2632;51.666;7.146;2023-05-09T07:18:07;17.60;99.90
5226;DHT22;2632;51.666;7.146;2023-05-09T07:20:34;17.80;99.90
5226;DHT22;2632;51.666;7.146;2023-05-09T07:23:04;18.10;99.90
5226;DHT22;2632;51.666;7.146;2023-05-09T07:25:31;18.10;99.90
5226;DHT22;2632;51.666;7.146;2023-05-09T07:27:58;18.20;99.90
5226;DHT22;2632;51.666;7.146;2023-05-09T07:30:24;18.00;99.90
5226;DHT22;2632;51.666;7.146;2023-05-09T07:32:51;17.90;99.90
5226;DHT22;2632;51.666;7.146;2023-05-09T07:35:18;17.90;99.90
5226;DHT22;2632;51.666;7.146;2023-05-09T07:37:45;17.80;99.90
5226;DHT22;2632;51.666;7.146;2023-05-09T07:40:12;17.90;99.90
5226;DHT22;2632;51.666;7.146;2023-05-09T07:42:39;18.10;99.90
5226;DHT22;2632;51.666;7.146;2023-05-09T07:45:06;18.20;99.90
5226;DHT22;2632;51.666;7.146;2023-05-09T07:47:33;18.30;99.90
5226;DHT22;2632;51.666;7.146;2023-05-09T07:50:00;18.50;99.90
5226;DHT22;2632;51.666;7.146;2023-05-09T07:52:26;18.70;99.90
5226;DHT22;2632;51.666;7.146;2023-05-09T07:54:53;18.70;99.90
5226;DHT22;2632;51.666;7.146;2023-05-09T07:57:20;18.80;99.90
5226;DHT22;2632;51.666;7.146;2023-05-09T07:59:46;19.00;99.90
5226;DHT22;2632;51.666;7.146;2023-05-09T08:02:13;19.30;99.90
5226;DHT22;2632;51.666;7.146;2023-05-09T08:04:40;19.40;99.90
5226;DHT22;2632;51.666;7.146;2023-05-09T08:07:07;19.40;99.90
5226;DHT22;2632;51.666;7.146;2023-05-09T08:09:34;19.60;99.90
5226;DHT22;2632;51.666;7.146;2023-05-09T08:12:01;19.50;99.90
5226;DHT22;2632;51.666;7.146;2023-05-09T08:14:27;19.90;99.90
5226;DHT22;2632;51.666;7.146;2023-05-09T08:16:55;20.00;99.90
5226;DHT22;2632;51.666;7.146;2023-05-09T08:19:21;20.20;99.90
5226;DHT22;2632;51.666;7.146;2023-05-09T08:21:52;19.70;99.90
5226;DHT22;2632;51.666;7.146;2023-05-09T08:24:18;19.60;99.90
5226;DHT22;2632;51.666;7.146;2023-05-09T08:26:45;19.40;99.90
5226;DHT22;2632;51.666;7.146;2023-05-09T08:29:12;19.20;99.90
5226;DHT22;2632;51.666;7.146;2023-05-09T08:31:39;19.00;99.90
5226;DHT22;2632;51.666;7.146;2023-05-09T08:34:06;19.20;99.90
5226;DHT22;2632;51.666;7.146;2023-05-09T08:36:32;19.30;99.90
5226;DHT22;2632;51.666;7.146;2023-05-09T08:39:00;19.50;99.90
5226;DHT22;2632;51.666;7.146;2023-05-09T08:41:27;19.40;99.90
5226;DHT22;2632;51.666;7.146;2023-05-09T08:43:54;19.60;99.90
5226;DHT22;2632;51.666;7.146;2023-05-09T08:46:27;20.90;99.90
5226;DHT22;2632;51.666;7.146;2023-05-09T08:48:57;20.70;99.90
5226;DHT22;2632;51.666;7.146;2023-05-09T08:51:24;20.20;99.90
5226;DHT22;2632;51.666;7.146;2023-05-09T08:53:51;20.00;99.90
5226;DHT22;2632;51.666;7.146;2023-05-09T08:56:18;20.00;99.90
5226;DHT22;2632;51.666;7.146;2023-05-09T08:58:45;20.10;99.90
5226;DHT22;2632;51.666;7.146;2023-05-09T09:01:13;20.70;99.90
5226;DHT22;2632;51.666;7.146;2023-05-09T09:03:40;20.60;99.10
5226;DHT22;2632;51.666;7.146;2023-05-09T09:06:13;20.30;99.90
5226;DHT22;2632;51.666;7.146;2023-05-09T09:08:40;19.80;99.90
5226;DHT22;2632;51.666;7.146;2023-05-09T09:11:12;19.60;99.90
5226;DHT22;2632;51.666;7.146;2023-05-09T09:13:39;19.50;99.90
5226;DHT22;2632;51.666;7.146;2023-05-09T09:16:16;19.90;99.90
5226;DHT22;2632;51.666;7.146;2023-05-09T09:18:45;20.80;99.50
5226;DHT22;2632;51.666;7.146;2023-05-09T09:21:14;22.80;94.90
5226;DHT22;2632;51.666;7.146;2023-05-09T09:23:42;22.30;92.60
5226;DHT22;2632;51.666;7.146;2023-05-09T09:26:09;21.80;95.70
5226;DHT22;2632;51.666;7.146;2023-05-09T09:28:36;21.30;96.30
5226;DHT22;2632;51.666;7.146;2023-05-09T09:31:21;20.90;97.10
5226;DHT22;2632;51.666;7.146;2023-05-09T09:33:49;21.00;98.00
5226;DHT22;2632;51.666;7.146;2023-05-09T09:36:25;23.40;93.10
5226;DHT22;2632;51.666;7.146;2023-05-09T09:39:00;23.40;91.20
5226;DHT22;2632;51.666;7.146;2023-05-09T09:41:35;22.90;91.40
5226;DHT22;2632;51.666;7.146;2023-05-09T09:44:12;22.60;92.20
5226;DHT22;2632;51.666;7.146;2023-05-09T09:46:52;24.70;86.10
5226;DHT22;2632;51.666;7.146;2023-05-09T09:49:22;25.60;76.80
5226;DHT22;2632;51.666;7.146;2023-05-09T09:51:56;26.80;68.70
5226;DHT22;2632;51.666;7.146;2023-05-09T09:54:27;26.20;63.10
5226;DHT22;2632;51.666;7.146;2023-05-09T09:56:54;25.80;63.80
5226;DHT22;2632;51.666;7.146;2023-05-09T09:59:24;25.60;63.10
5226;DHT22;2632;51.666;7.146;2023-05-09T10:02:05;26.00;65.40
5226;DHT22;2632;51.666;7.146;2023-05-09T10:04:36;25.50;64.20
5226;DHT22;2632;51.666;7.146;2023-05-09T10:07:05;26.10;63.90
5226;DHT22;2632;51.666;7.146;2023-05-09T10:09:33;26.20;60.20
5226;DHT22;2632;51.666;7.146;2023-05-09T10:12:03;26.00;62.30
5226;DHT22;2632;51.666;7.146;2023-05-09T10:14:33;25.40;62.50
5226;DHT22;2632;51.666;7.146;2023-05-09T10:17:02;25.50;64.10
5226;DHT22;2632;51.666;7.146;2023-05-09T10:19:30;25.40;60.50
5226;DHT22;2632;51.666;7.146;2023-05-09T10:22:07;25.00;63.60
5226;DHT22;2632;51.666;7.146;2023-05-09T10:25:00;24.50;63.60
5226;DHT22;2632;51.666;7.146;2023-05-09T10:27:30;24.30;63.60
5226;DHT22;2632;51.666;7.146;2023-05-09T10:32:57;24.50;63.80
5226;DHT22;2632;51.666;7.146;2023-05-09T10:35:30;25.00;62.30
5226;DHT22;2632;51.666;7.146;2023-05-09T10:37:59;25.50;58.40
5226;DHT22;2632;51.666;7.146;2023-05-09T10:40:27;25.70;57.50
5226;DHT22;2632;51.666;7.146;2023-05-09T10:42:54;26.30;59.30
5226;DHT22;2632;51.666;7.146;2023-05-09T10:45:21;26.60;55.80
5226;DHT22;2632;51.666;7.146;2023-05-09T10:47:49;26.00;55.80
5226;DHT22;2632;51.666;7.146;2023-05-09T10:50:16;25.70;57.50
5226;DHT22;2632;51.666;7.146;2023-05-09T10:55:55;25.30;57.90
5226;DHT22;2632;51.666;7.146;2023-05-09T10:58:27;24.80;60.60
5226;DHT22;2632;51.666;7.146;2023-05-09T11:00:56;24.30;61.40
5226;DHT22;2632;51.666;7.146;2023-05-09T11:03:24;23.80;63.00
5226;DHT22;2632;51.666;7.146;2023-05-09T11:05:53;23.70;65.10
5226;DHT22;2632;51.666;7.146;2023-05-09T11:08:27;24.20;63.20
5226;DHT22;2632;51.666;7.146;2023-05-09T11:10:55;24.00;66.90
5226;DHT22;2632;51.666;7.146;2023-05-09T11:13:24;23.80;65.50
5226;DHT22;2632;51.666;7.146;2023-05-09T11:18:23;23.90;66.00
5226;DHT22;2632;51.666;7.146;2023-05-09T11:20:50;23.90;66.80
5226;DHT22;2632;51.666;7.146;2023-05-09T11:23:29;23.90;69.30
5226;DHT22;2632;51.666;7.146;2023-05-09T11:26:15;23.80;66.70
5226;DHT22;2632;51.666;7.146;2023-05-09T11:28:51;23.80;68.80
5226;DHT22;2632;51.666;7.146;2023-05-09T11:31:18;23.50;66.90
5226;DHT22;2632;51.666;7.146;2023-05-09T11:33:48;23.60;69.90
5226;DHT22;2632;51.666;7.146;2023-05-09T11:41:30;23.80;70.70
5226;DHT22;2632;51.666;7.146;2023-05-09T11:43:57;23.80;69.10
5226;DHT22;2632;51.666;7.146;2023-05-09T11:46:26;23.60;66.10
5226;DHT22;2632;51.666;7.146;2023-05-09T11:48:53;23.50;66.20
5226;DHT22;2632;51.666;7.146;2023-05-09T11:51:19;23.50;66.70
5226;DHT22;2632;51.666;7.146;2023-05-09T11:53:49;23.30;67.10
5226;DHT22;2632;51.666;7.146;2023-05-09T11:56:16;23.20;68.90
5226;DHT22;2632;51.666;7.146;2023-05-09T11:58:43;23.00;70.20
5226;DHT22;2632;51.666;7.146;2023-05-09T12:01:12;22.90;71.00
5226;DHT22;2632;51.666;7.146;2023-05-09T12:03:43;22.80;71.50
5226;DHT22;2632;51.666;7.146;2023-05-09T12:06:14;22.90;71.80
5226;DHT22;2632;51.666;7.146;2023-05-09T12:08:43;23.10;68.50
5226;DHT22;2632;51.666;7.146;2023-05-09T12:11:10;23.70;68.90
5226;DHT22;2632;51.666;7.146;2023-05-09T12:13:47;24.00;68.80
5226;DHT22;2632;51.666;7.146;2023-05-09T12:16:15;23.80;66.40
5226;DHT22;2632;51.666;7.146;2023-05-09T12:18:49;23.60;67.80
5226;DHT22;2632;51.666;7.146;2023-05-09T12:21:17;23.70;70.00
5226;DHT22;2632;51.666;7.146;2023-05-09T12:23:47;23.60;69.00
5226;DHT22;2632;51.666;7.146;2023-05-09T12:26:17;23.20;69.50
5226;DHT22;2632;51.666;7.146;2023-05-09T12:28:44;23.30;69.90
5226;DHT22;2632;51.666;7.146;2023-05-09T12:31:11;23.20;68.40
5226;DHT22;2632;51.666;7.146;2023-05-09T12:33:38;23.40;69.80
5226;DHT22;2632;51.666;7.146;2023-05-09T12:36:10;23.20;66.70
5226;DHT22;2632;51.666;7.146;2023-05-09T12:38:37;23.40;70.20
5226;DHT22;2632;51.666;7.146;2023-05-09T12:41:06;23.70;70.10
5226;DHT22;2632;51.666;7.146;2023-05-09T12:43:47;23.90;69.70
5226;DHT22;2632;51.666;7.146;2023-05-09T12:46:17;24.00;64.70
5226;DHT22;2632;51.666;7.146;2023-05-09T12:48:45;24.20;63.40
5226;DHT22;2632;51.666;7.146;2023-05-09T12:51:20;24.50;65.60
5226;DHT22;2632;51.666;7.146;2023-05-09T12:53:47;24.70;64.10
5226;DHT22;2632;51.666;7.146;2023-05-09T12:56:16;24.80;62.20
5226;DHT22;2632;51.666;7.146;2023-05-09T12:58:53;24.70;60.00
5226;DHT22;2632;51.666;7.146;2023-05-09T13:01:27;24.90;64.10
5226;DHT22;2632;51.666;7.146;2023-05-09T13:04:04;25.20;63.20
5226;DHT22;2632;51.666;7.146;2023-05-09T13:06:32;25.40;61.50
5226;DHT22;2632;51.666;7.146;2023-05-09T13:09:01;25.20;58.30
5226;DHT22;2632;51.666;7.146;2023-05-09T13:11:28;25.00;59.10
5226;DHT22;2632;51.666;7.146;2023-05-09T13:13:55;24.80;60.60
5226;DHT22;2632;51.666;7.146;2023-05-09T13:16:22;24.90;61.20
5226;DHT22;2632;51.666;7.146;2023-05-09T13:18:49;24.50;57.30
5226;DHT22;2632;51.666;7.146;2023-05-09T13:21:15;24.30;58.90
5226;DHT22;2632;51.666;7.146;2023-05-09T13:23:42;24.30;61.40
5226;DHT22;2632;51.666;7.146;2023-05-09T13:26:10;24.30;61.70
5226;DHT22;2632;51.666;7.146;2023-05-09T13:28:37;24.30;61.70
5226;DHT22;2632;51.666;7.146;2023-05-09T13:31:04;24.30;62.30
5226;DHT22;2632;51.666;7.146;2023-05-09T13:33:30;24.00;59.90
5226;DHT22;2632;51.666;7.146;2023-05-09T13:35:57;23.70;61.20
5226;DHT22;2632;51.666;7.146;2023-05-09T13:38:23;23.70;62.20
5226;DHT22;2632;51.666;7.146;2023-05-09T13:40:51;23.70;61.40
5226;DHT22;2632;51.666;7.146;2023-05-09T13:43:17;23.80;62.30
5226;DHT22;2632;51.666;7.146;2023-05-09T13:45:44;23.40;61.10
5226;DHT22;2632;51.666;7.146;2023-05-09T13:48:11;23.30;64.80
5226;DHT22;2632;51.666;7.146;2023-05-09T13:50:37;23.30;63.20
5226;DHT22;2632;51.666;7.146;2023-05-09T13:53:04;22.90;63.90
5226;DHT22;2632;51.666;7.146;2023-05-09T13:55:31;22.80;63.30
5226;DHT22;2632;51.666;7.146;2023-05-09T13:57:59;22.60;63.70
5226;DHT22;2632;51.666;7.146;2023-05-09T14:00:26;22.50;64.10
5226;DHT22;2632;51.666;7.146;2023-05-09T14:02:53;22.60;64.70
5226;DHT22;2632;51.666;7.146;2023-05-09T14:05:20;22.80;65.30
5226;DHT22;2632;51.666;7.146;2023-05-09T14:07:46;22.70;64.70
5226;DHT22;2632;51.666;7.146;2023-05-09T14:10:13;22.70;65.30
5226;DHT22;2632;51.666;7.146;2023-05-09T14:12:42;22.40;71.50
5226;DHT22;2632;51.666;7.146;2023-05-09T14:15:10;22.30;76.20
5226;DHT22;2632;51.666;7.146;2023-05-09T14:17:38;22.10;80.10
5226;DHT22;2632;51.666;7.146;2023-05-09T14:20:05;22.00;84.00
5226;DHT22;2632;51.666;7.146;2023-05-09T14:22:32;21.70;89.50
5226;DHT22;2632;51.666;7.146;2023-05-09T14:24:59;21.50;90.90
5226;DHT22;2632;51.666;7.146;2023-05-09T14:27:25;21.50;91.70
5226;DHT22;2632;51.666;7.146;2023-05-09T14:29:52;21.40;92.50
5226;DHT22;2632;51.666;7.146;2023-05-09T14:32:19;21.40;93.40
5226;DHT22;2632;51.666;7.146;2023-05-09T14:34:46;21.30;94.80
5226;DHT22;2632;51.666;7.146;2023-05-09T14:37:15;21.20;95.80
5226;DHT22;2632;51.666;7.146;2023-05-09T14:39:43;21.10;96.90
5226;DHT22;2632;51.666;7.146;2023-05-09T14:42:10;21.00;97.60
5226;DHT22;2632;51.666;7.146;2023-05-09T14:44:40;20.90;98.50
5226;DHT22;2632;51.666;7.146;2023-05-09T14:47:10;20.70;99.20
5226;DHT22;2632;51.666;7.146;2023-05-09T14:49:37;20.70;99.60
5226;DHT22;2632;51.666;7.146;2023-05-09T14:52:05;20.60;99.90
5226;DHT22;2632;51.666;7.146;2023-05-09T14:54:31;20.50;99.90
5226;DHT22;2632;51.666;7.146;2023-05-09T14:56:58;20.40;99.90
5226;DHT22;2632;51.666;7.146;2023-05-09T14:59:27;20.40;99.90
5226;DHT22;2632;51.666;7.146;2023-05-09T15:01:53;20.30;99.90
5226;DHT22;2632;51.666;7.146;2023-05-09T15:04:20;20.10;99.90
5226;DHT22;2632;51.666;7.146;2023-05-09T15:06:47;19.90;99.90
5226;DHT22;2632;51.666;7.146;2023-05-09T15:09:14;19.80;99.90
5226;DHT22;2632;51.666;7.146;2023-05-09T15:11:40;19.70;99.90
5226;DHT22;2632;51.666;7.146;2023-05-09T15:14:14;19.70;99.90
5226;DHT22;2632;51.666;7.146;2023-05-09T15:16:40;19.50;99.90
5226;DHT22;2632;51.666;7.146;2023-05-09T15:19:07;19.40;99.90
5226;DHT22;2632;51.666;7.146;2023-05-09T15:21:34;19.40;99.90
5226;DHT22;2632;51.666;7.146;2023-05-09T15:24:01;19.20;99.90
5226;DHT22;2632;51.666;7.146;2023-05-09T15:26:28;19.20;99.90
5226;DHT22;2632;51.666;7.146;2023-05-09T15:28:55;19.30;99.90
5226;DHT22;2632;51.666;7.146;2023-05-09T15:31:21;19.30;99.90
5226;DHT22;2632;51.666;7.146;2023-05-09T15:33:49;19.30;99.90
5226;DHT22;2632;51.666;7.146;2023-05-09T15:36:16;19.20;99.90
5226;DHT22;2632;51.666;7.146;2023-05-09T15:38:42;19.10;99.90
5226;DHT22;2632;51.666;7.146;2023-05-09T15:41:13;19.00;99.90
5226;DHT22;2632;51.666;7.146;2023-05-09T15:43:41;18.90;99.90
5226;DHT22;2632;51.666;7.146;2023-05-09T15:46:07;18.80;99.90
5226;DHT22;2632;51.666;7.146;2023-05-09T15:48:34;18.80;99.90
5226;DHT22;2632;51.666;7.146;2023-05-09T15:51:01;18.80;99.90
5226;DHT22;2632;51.666;7.146;2023-05-09T15:53:29;18.80;99.90
5226;DHT22;2632;51.666;7.146;2023-05-09T15:55:56;18.70;99.90
5226;DHT22;2632;51.666;7.146;2023-05-09T15:58:22;18.70;99.90
5226;DHT22;2632;51.666;7.146;2023-05-09T16:00:49;18.50;99.90
5226;DHT22;2632;51.666;7.146;2023-05-09T16:03:16;18.40;99.90
5226;DHT22;2632;51.666;7.146;2023-05-09T16:05:44;18.40;99.90
5226;DHT22;2632;51.666;7.146;2023-05-09T16:08:10;18.40;99.90
5226;DHT22;2632;51.666;7.146;2023-05-09T16:10:37;18.20;99.90
5226;DHT22;2632;51.666;7.146;2023-05-09T16:13:04;18.20;99.90
5226;DHT22;2632;51.666;7.146;2023-05-09T16:15:31;18.20;99.90
5226;DHT22;2632;51.666;7.146;2023-05-09T16:17:58;18.20;99.90
5226;DHT22;2632;51.666;7.146;2023-05-09T16:20:24;18.20;99.90
5226;DHT22;2632;51.666;7.146;2023-05-09T16:22:51;18.00;99.90
5226;DHT22;2632;51.666;7.146;2023-05-09T16:25:17;18.00;99.90
5226;DHT22;2632;51.666;7.146;2023-05-09T16:27:44;18.00;99.90
5226;DHT22;2632;51.666;7.146;2023-05-09T16:30:11;18.00;99.90
5226;DHT22;2632;51.666;7.146;2023-05-09T16:32:38;17.90;99.90
5226;DHT22;2632;51.666;7.146;2023-05-09T16:35:05;17.70;99.90
5226;DHT22;2632;51.666;7.146;2023-05-09T16:37:33;17.80;99.90
5226;DHT22;2632;51.666;7.146;2023-05-09T16:40:01;17.60;99.90
5226;DHT22;2632;51.666;7.146;2023-05-09T16:42:32;17.60;99.90
5226;DHT22;2632;51.666;7.146;2023-05-09T16:44:58;17.60;99.90
5226;DHT22;2632;51.666;7.146;2023-05-09T16:47:25;17.70;99.90
5226;DHT22;2632;51.666;7.146;2023-05-09T16:49:52;17.50;99.90
5226;DHT22;2632;51.666;7.146;2023-05-09T16:52:19;17.40;99.90
5226;DHT22;2632;51.666;7.146;2023-05-09T16:54:45;17.40;99.90
5226;DHT22;2632;51.666;7.146;2023-05-09T16:57:12;17.50;99.90
5226;DHT22;2632;51.666;7.146;2023-05-09T16:59:39;17.60;99.90
5226;DHT22;2632;51.666;7.146;2023-05-09T17:02:06;17.50;99.90
5226;DHT22;2632;51.666;7.146;2023-05-09T17:04:33;17.40;99.90
5226;DHT22;2632;51.666;7.146;2023-05-09T17:07:03;17.30;99.90
5226;DHT22;2632;51.666;7.146;2023-05-09T17:09:30;17.20;99.90
5226;DHT22;2632;51.666;7.146;2023-05-09T17:11:57;17.20;99.90
5226;DHT22;2632;51.666;7.146;2023-05-09T17:14:24;17.30;99.90
5226;DHT22;2632;51.666;7.146;2023-05-09T17:16:51;17.30;99.90
5226;DHT22;2632;51.666;7.146;2023-05-09T17:19:18;17.30;99.90
5226;DHT22;2632;51.666;7.146;2023-05-09T17:21:48;17.20;99.90
5226;DHT22;2632;51.666;7.146;2023-05-09T17:24:17;17.20;99.90
5226;DHT22;2632;51.666;7.146;2023-05-09T17:26:44;17.20;99.90